sensor_id;sensor_type;location;lat;lon;timestamp;pressure;altitude;pressure_sealevel;temperature;humidity
33286;BME280;19656;50.096;20.014;2023-03-20T00:04:53;99016.72;;;9.67;48.85
33286;BME280;19656;50.096;20.014;2023-03-20T00:09:57;99013.95;;;9.81;48.34
33286;BME280;19656;50.096;20.014;2023-03-20T00:15:02;99009.45;;;9.88;47.91
33286;BME280;19656;50.096;20.014;2023-03-20T00:20:13;99014.67;;;9.92;47.81
33286;BME280;19656;50.096;20.014;2023-03-20T00:25:22;99018.60;;;9.95;47.76
33286;BME280;19656;50.096;20.014;2023-03-20T00:30:29;99014.51;;;9.98;47.82
33286;BME280;19656;50.096;20.014;2023-03-20T00:35:34;99006.96;;;10.06;47.67
33286;BME280;19656;50.096;20.014;2023-03-20T00:40:39;99004.11;;;10.14;47.35
33286;BME280;19656;50.096;20.014;2023-03-20T00:45:45;98997.88;;;10.15;47.18
33286;BME280;19656;50.096;20.014;2023-03-20T00:50:49;98997.91;;;10.14;47.12
33286;BME280;19656;50.096;20.014;2023-03-20T00:55:52;98996.73;;;10.16;47.03
33286;BME280;19656;50.096;20.014;2023-03-20T01:00:56;98993.86;;;10.14;47.15
33286;BME280;19656;50.096;20.014;2023-03-20T01:05:59;98999.23;;;10.10;47.03
33286;BME280;19656;50.096;20.014;2023-03-20T01:11:03;99000.84;;;10.10;47.01
33286;BME280;19656;50.096;20.014;2023-03-20T01:16:22;98996.95;;;10.13;46.91
33286;BME280;19656;50.096;20.014;2023-03-20T01:21:25;98995.71;;;10.10;46.89
33286;BME280;19656;50.096;20.014;2023-03-20T01:26:33;98999.68;;;10.03;47.31
33286;BME280;19656;50.096;20.014;2023-03-20T01:31:38;98993.84;;;9.91;47.58
33286;BME280;19656;50.096;20.014;2023-03-20T01:36:51;98993.27;;;9.89;47.56
33286;BME280;19656;50.096;20.014;2023-03-20T01:41:55;98993.16;;;9.88;47.82
33286;BME280;19656;50.096;20.014;2023-03-20T01:47:05;98994.14;;;9.77;48.44
33286;BME280;19656;50.096;20.014;2023-03-20T01:52:14;98994.64;;;9.63;48.96
33286;BME280;19656;50.096;20.014;2023-03-20T01:57:21;98993.60;;;9.54;49.32
33286;BME280;19656;50.096;20.014;2023-03-20T02:02:29;98996.30;;;9.47;49.36
33286;BME280;19656;50.096;20.014;2023-03-20T02:07:34;99001.52;;;9.54;49.26
33286;BME280;19656;50.096;20.014;2023-03-20T02:12:40;98999.15;;;9.52;49.95
33286;BME280;19656;50.096;20.014;2023-03-20T02:17:45;99001.98;;;9.40;50.28
33286;BME280;19656;50.096;20.014;2023-03-20T03:01:19;98982.32;;;10.06;48.47
33286;BME280;19656;50.096;20.014;2023-03-20T03:06:30;98977.59;;;10.11;48.27
33286;BME280;19656;50.096;20.014;2023-03-20T03:11:38;98971.05;;;10.10;48.28
33286;BME280;19656;50.096;20.014;2023-03-20T03:16:44;98970.38;;;10.12;48.20
33286;BME280;19656;50.096;20.014;2023-03-20T03:21:50;98969.16;;;10.15;48.19
33286;BME280;19656;50.096;20.014;2023-03-20T03:26:57;98968.63;;;10.09;48.26
33286;BME280;19656;50.096;20.014;2023-03-20T03:32:04;98965.10;;;10.03;48.21
33286;BME280;19656;50.096;20.014;2023-03-20T03:37:38;98964.87;;;10.07;48.11
33286;BME280;19656;50.096;20.014;2023-03-20T03:42:56;98966.14;;;10.01;48.07
33286;BME280;19656;50.096;20.014;2023-03-20T03:53:11;98962.10;;;10.09;47.99
33286;BME280;19656;50.096;20.014;2023-03-20T04:03:31;98957.67;;;10.11;47.97
33286;BME280;19656;50.096;20.014;2023-03-20T04:08:39;98963.86;;;10.12;47.96
33286;BME280;19656;50.096;20.014;2023-03-20T04:13:45;98964.52;;;10.13;48.46
33286;BME280;19656;50.096;20.014;2023-03-20T04:18:50;98966.69;;;10.12;48.00
33286;BME280;19656;50.096;20.014;2023-03-20T04:23:53;98967.86;;;10.10;47.90
33286;BME280;19656;50.096;20.014;2023-03-20T04:28:58;98967.58;;;10.09;47.94
33286;BME280;19656;50.096;20.014;2023-03-20T04:34:36;98967.38;;;10.01;48.28
33286;BME280;19656;50.096;20.014;2023-03-20T04:39:58;98967.44;;;10.03;48.27
33286;BME280;19656;50.096;20.014;2023-03-20T04:45:03;98970.30;;;10.05;47.91
33286;BME280;19656;50.096;20.014;2023-03-20T04:50:11;98974.17;;;10.06;47.87
33286;BME280;19656;50.096;20.014;2023-03-20T04:55:16;98977.46;;;10.04;47.80
33286;BME280;19656;50.096;20.014;2023-03-20T05:00:20;98974.48;;;10.04;47.73
33286;BME280;19656;50.096;20.014;2023-03-20T05:05:25;98974.23;;;10.05;47.84
33286;BME280;19656;50.096;20.014;2023-03-20T05:10:29;98975.22;;;10.06;48.25
33286;BME280;19656;50.096;20.014;2023-03-20T05:15:38;98982.24;;;9.95;48.72
33286;BME280;19656;50.096;20.014;2023-03-20T05:20:56;98986.31;;;9.89;48.46
33286;BME280;19656;50.096;20.014;2023-03-20T05:26:22;98988.08;;;9.90;48.21
33286;BME280;19656;50.096;20.014;2023-03-20T05:31:45;98989.02;;;10.01;47.93
33286;BME280;19656;50.096;20.014;2023-03-20T05:36:54;98990.88;;;10.11;47.80
33286;BME280;19656;50.096;20.014;2023-03-20T05:42:23;98988.58;;;10.14;47.73
33286;BME280;19656;50.096;20.014;2023-03-20T05:47:48;98984.38;;;10.22;47.45
33286;BME280;19656;50.096;20.014;2023-03-20T05:53:15;98988.19;;;10.26;47.37
33286;BME280;19656;50.096;20.014;2023-03-20T05:58:42;98991.59;;;10.31;47.35
33286;BME280;19656;50.096;20.014;2023-03-20T06:04:08;98996.64;;;10.33;47.31
33286;BME280;19656;50.096;20.014;2023-03-20T06:09:26;98996.65;;;10.27;47.57
33286;BME280;19656;50.096;20.014;2023-03-20T06:14:31;98997.23;;;10.20;47.47
33286;BME280;19656;50.096;20.014;2023-03-20T06:19:36;98997.33;;;10.25;47.33
33286;BME280;19656;50.096;20.014;2023-03-20T06:24:40;98996.80;;;10.28;47.07
33286;BME280;19656;50.096;20.014;2023-03-20T06:29:45;99000.13;;;10.28;46.87
33286;BME280;19656;50.096;20.014;2023-03-20T06:34:55;99002.01;;;10.32;47.00
33286;BME280;19656;50.096;20.014;2023-03-20T06:40:05;99005.52;;;10.38;47.26
33286;BME280;19656;50.096;20.014;2023-03-20T06:45:10;99003.20;;;10.55;46.90
33286;BME280;19656;50.096;20.014;2023-03-20T06:50:30;99011.91;;;10.73;46.55
33286;BME280;19656;50.096;20.014;2023-03-20T06:55:33;99009.18;;;10.85;46.49
33286;BME280;19656;50.096;20.014;2023-03-20T07:00:38;99015.85;;;10.97;46.00
33286;BME280;19656;50.096;20.014;2023-03-20T07:05:42;99021.80;;;11.07;45.72
33286;BME280;19656;50.096;20.014;2023-03-20T07:10:47;99024.34;;;11.20;45.53
33286;BME280;19656;50.096;20.014;2023-03-20T07:15:51;99022.46;;;11.35;45.43
33286;BME280;19656;50.096;20.014;2023-03-20T07:21:17;99022.23;;;11.52;45.18
33286;BME280;19656;50.096;20.014;2023-03-20T07:26:23;99022.56;;;11.65;44.70
33286;BME280;19656;50.096;20.014;2023-03-20T07:31:27;99016.67;;;11.74;44.33
33286;BME280;19656;50.096;20.014;2023-03-20T07:36:43;99018.03;;;11.77;44.37
33286;BME280;19656;50.096;20.014;2023-03-20T07:41:47;99016.86;;;11.85;44.50
33286;BME280;19656;50.096;20.014;2023-03-20T07:47:00;99016.94;;;11.97;44.64
33286;BME280;19656;50.096;20.014;2023-03-20T07:52:03;99019.66;;;12.17;44.66
33286;BME280;19656;50.096;20.014;2023-03-20T07:57:06;99020.45;;;12.33;44.25
33286;BME280;19656;50.096;20.014;2023-03-20T08:02:16;99023.91;;;12.45;44.09
33286;BME280;19656;50.096;20.014;2023-03-20T08:07:20;99023.70;;;12.45;44.13
33286;BME280;19656;50.096;20.014;2023-03-20T08:12:24;99021.61;;;12.42;44.26
33286;BME280;19656;50.096;20.014;2023-03-20T08:17:28;99027.52;;;12.42;44.37
33286;BME280;19656;50.096;20.014;2023-03-20T08:22:31;99025.56;;;12.42;44.67
33286;BME280;19656;50.096;20.014;2023-03-20T08:27:36;99022.25;;;12.46;44.80
33286;BME280;19656;50.096;20.014;2023-03-20T08:32:40;99026.08;;;12.42;44.82
33286;BME280;19656;50.096;20.014;2023-03-20T08:37:45;99028.55;;;12.42;45.13
33286;BME280;19656;50.096;20.014;2023-03-20T08:42:48;99028.86;;;12.53;45.22
33286;BME280;19656;50.096;20.014;2023-03-20T08:47:52;99033.58;;;12.72;45.44
33286;BME280;19656;50.096;20.014;2023-03-20T08:52:57;99032.19;;;12.92;45.30
33286;BME280;19656;50.096;20.014;2023-03-20T08:58:00;99034.62;;;13.10;45.51
33286;BME280;19656;50.096;20.014;2023-03-20T09:03:04;99032.88;;;13.24;45.33
33286;BME280;19656;50.096;20.014;2023-03-20T09:08:08;99031.61;;;13.39;45.39
33286;BME280;19656;50.096;20.014;2023-03-20T09:13:11;99028.08;;;13.51;45.45
33286;BME280;19656;50.096;20.014;2023-03-20T09:18:29;99025.30;;;13.66;45.44
33286;BME280;19656;50.096;20.014;2023-03-20T09:23:32;99024.60;;;13.80;45.33
33286;BME280;19656;50.096;20.014;2023-03-20T09:28:36;99016.67;;;13.93;45.57
33286;BME280;19656;50.096;20.014;2023-03-20T09:33:39;99021.69;;;14.12;45.66
33286;BME280;19656;50.096;20.014;2023-03-20T09:38:43;99023.26;;;14.28;45.84
33286;BME280;19656;50.096;20.014;2023-03-20T09:44:13;99017.70;;;14.52;46.04
33286;BME280;19656;50.096;20.014;2023-03-20T09:54:34;99028.83;;;14.83;45.55
33286;BME280;19656;50.096;20.014;2023-03-20T10:00:02;99026.98;;;14.79;45.55
33286;BME280;19656;50.096;20.014;2023-03-20T10:05:21;99026.28;;;14.83;45.81
33286;BME280;19656;50.096;20.014;2023-03-20T10:10:54;99031.96;;;14.93;45.68
33286;BME280;19656;50.096;20.014;2023-03-20T10:16:41;99029.98;;;15.00;46.04
33286;BME280;19656;50.096;20.014;2023-03-20T10:21:47;99026.65;;;15.10;45.89
33286;BME280;19656;50.096;20.014;2023-03-20T10:26:52;99025.00;;;15.15;46.04
33286;BME280;19656;50.096;20.014;2023-03-20T10:32:14;99025.25;;;15.07;46.21
33286;BME280;19656;50.096;20.014;2023-03-20T10:37:36;99019.80;;;14.99;46.69
33286;BME280;19656;50.096;20.014;2023-03-20T10:42:46;99020.46;;;15.05;46.62
33286;BME280;19656;50.096;20.014;2023-03-20T10:47:51;99012.29;;;15.30;46.60
33286;BME280;19656;50.096;20.014;2023-03-20T10:52:56;99012.63;;;15.65;46.02
33286;BME280;19656;50.096;20.014;2023-03-20T10:58:13;99008.73;;;15.72;45.80
33286;BME280;19656;50.096;20.014;2023-03-20T11:03:21;98998.45;;;15.81;45.71
33286;BME280;19656;50.096;20.014;2023-03-20T11:08:36;98998.11;;;15.78;45.69
33286;BME280;19656;50.096;20.014;2023-03-20T11:13:42;98995.79;;;15.76;45.86
33286;BME280;19656;50.096;20.014;2023-03-20T11:18:47;98999.41;;;15.65;46.20
33286;BME280;19656;50.096;20.014;2023-03-20T11:23:54;98996.80;;;15.51;46.71
33286;BME280;19656;50.096;20.014;2023-03-20T11:28:58;98989.16;;;15.40;47.15
33286;BME280;19656;50.096;20.014;2023-03-20T11:34:08;98984.48;;;15.31;47.51
33286;BME280;19656;50.096;20.014;2023-03-20T11:39:16;98983.65;;;15.24;48.12
33286;BME280;19656;50.096;20.014;2023-03-20T11:49:32;98987.38;;;15.14;48.81
33286;BME280;19656;50.096;20.014;2023-03-20T11:54:44;98994.55;;;15.16;49.32
33286;BME280;19656;50.096;20.014;2023-03-20T11:59:49;98987.52;;;15.21;49.32
33286;BME280;19656;50.096;20.014;2023-03-20T12:04:53;98980.71;;;15.27;49.55
33286;BME280;19656;50.096;20.014;2023-03-20T12:10:10;98976.02;;;15.26;50.02
33286;BME280;19656;50.096;20.014;2023-03-20T12:20:31;98971.45;;;15.29;50.34
33286;BME280;19656;50.096;20.014;2023-03-20T12:25:50;98968.70;;;15.22;50.65
33286;BME280;19656;50.096;20.014;2023-03-20T12:31:31;98965.94;;;15.14;50.97
33286;BME280;19656;50.096;20.014;2023-03-20T12:36:42;98962.55;;;15.14;51.20
33286;BME280;19656;50.096;20.014;2023-03-20T12:47:21;98958.05;;;15.64;51.28
33286;BME280;19656;50.096;20.014;2023-03-20T13:20:20;98928.91;;;17.19;45.24
33286;BME280;19656;50.096;20.014;2023-03-20T13:25:31;98928.61;;;17.12;45.44
33286;BME280;19656;50.096;20.014;2023-03-20T13:35:58;98921.58;;;17.03;45.89
33286;BME280;19656;50.096;20.014;2023-03-20T13:41:06;98921.63;;;16.70;46.34
33286;BME280;19656;50.096;20.014;2023-03-20T13:46:16;98926.15;;;16.49;47.36
33286;BME280;19656;50.096;20.014;2023-03-20T13:56:55;98918.30;;;16.24;48.75
33286;BME280;19656;50.096;20.014;2023-03-20T14:07:36;98927.41;;;15.87;49.58
33286;BME280;19656;50.096;20.014;2023-03-20T14:12:40;98926.00;;;15.77;50.04
33286;BME280;19656;50.096;20.014;2023-03-20T14:17:46;98929.36;;;15.71;50.35
33286;BME280;19656;50.096;20.014;2023-03-20T14:22:50;98932.50;;;15.68;50.50
33286;BME280;19656;50.096;20.014;2023-03-20T14:38:56;98930.71;;;15.61;51.04
33286;BME280;19656;50.096;20.014;2023-03-20T14:50:04;98931.86;;;15.62;50.92
33286;BME280;19656;50.096;20.014;2023-03-20T15:00:28;98930.88;;;15.55;51.77
33286;BME280;19656;50.096;20.014;2023-03-20T15:05:38;98930.13;;;15.51;51.96
33286;BME280;19656;50.096;20.014;2023-03-20T15:10:49;98930.66;;;15.43;52.03
33286;BME280;19656;50.096;20.014;2023-03-20T15:15:55;98936.77;;;15.31;52.45
33286;BME280;19656;50.096;20.014;2023-03-20T15:20:59;98935.64;;;15.26;52.76
33286;BME280;19656;50.096;20.014;2023-03-20T15:26:03;98937.30;;;15.23;53.02
33286;BME280;19656;50.096;20.014;2023-03-20T15:31:20;98932.45;;;15.21;53.22
33286;BME280;19656;50.096;20.014;2023-03-20T15:36:28;98932.82;;;15.19;53.41
33286;BME280;19656;50.096;20.014;2023-03-20T15:41:49;98934.79;;;15.19;53.64
33286;BME280;19656;50.096;20.014;2023-03-20T15:47:00;98944.33;;;15.05;54.88
33286;BME280;19656;50.096;20.014;2023-03-20T15:52:12;98948.71;;;14.91;56.33
33286;BME280;19656;50.096;20.014;2023-03-20T15:57:34;98946.49;;;14.74;57.56
33286;BME280;19656;50.096;20.014;2023-03-20T16:02:38;98944.89;;;14.61;58.49
33286;BME280;19656;50.096;20.014;2023-03-20T16:07:42;98944.98;;;14.53;58.80
33286;BME280;19656;50.096;20.014;2023-03-20T16:12:48;98944.92;;;14.46;59.35
33286;BME280;19656;50.096;20.014;2023-03-20T16:17:58;98950.01;;;14.45;59.36
33286;BME280;19656;50.096;20.014;2023-03-20T16:23:05;98957.55;;;14.49;59.55
33286;BME280;19656;50.096;20.014;2023-03-20T16:28:11;98957.17;;;14.52;59.22
33286;BME280;19656;50.096;20.014;2023-03-20T16:33:16;98957.24;;;14.56;59.41
33286;BME280;19656;50.096;20.014;2023-03-20T16:38:25;98952.98;;;14.51;59.31
33286;BME280;19656;50.096;20.014;2023-03-20T16:43:30;98954.86;;;14.40;58.95
33286;BME280;19656;50.096;20.014;2023-03-20T16:48:35;98953.41;;;14.42;58.34
33286;BME280;19656;50.096;20.014;2023-03-20T16:53:46;98954.20;;;14.49;57.87
33286;BME280;19656;50.096;20.014;2023-03-20T16:59:05;98952.98;;;14.51;57.41
33286;BME280;19656;50.096;20.014;2023-03-20T17:04:20;98951.76;;;14.53;57.07
33286;BME280;19656;50.096;20.014;2023-03-20T17:09:27;98947.61;;;14.49;56.87
33286;BME280;19656;50.096;20.014;2023-03-20T17:14:31;98942.42;;;14.47;56.66
33286;BME280;19656;50.096;20.014;2023-03-20T17:19:35;98947.67;;;14.46;56.66
33286;BME280;19656;50.096;20.014;2023-03-20T17:24:38;98945.56;;;14.47;56.51
33286;BME280;19656;50.096;20.014;2023-03-20T17:29:42;98946.31;;;14.45;56.45
33286;BME280;19656;50.096;20.014;2023-03-20T17:34:46;98949.40;;;14.41;56.83
33286;BME280;19656;50.096;20.014;2023-03-20T17:39:49;98955.17;;;14.41;56.68
33286;BME280;19656;50.096;20.014;2023-03-20T17:44:53;98960.57;;;14.40;56.70
33286;BME280;19656;50.096;20.014;2023-03-20T17:49:56;98959.60;;;14.41;56.74
33286;BME280;19656;50.096;20.014;2023-03-20T17:55:00;98957.75;;;14.40;56.68
33286;BME280;19656;50.096;20.014;2023-03-20T18:00:18;98959.14;;;14.36;56.72
33286;BME280;19656;50.096;20.014;2023-03-20T18:05:22;98958.60;;;14.34;56.81
33286;BME280;19656;50.096;20.014;2023-03-20T18:10:28;98959.81;;;14.32;56.91
33286;BME280;19656;50.096;20.014;2023-03-20T18:15:34;98959.25;;;14.30;56.89
33286;BME280;19656;50.096;20.014;2023-03-20T18:20:40;98961.20;;;14.26;57.01
33286;BME280;19656;50.096;20.014;2023-03-20T18:25:44;98960.82;;;14.17;57.17
33286;BME280;19656;50.096;20.014;2023-03-20T18:30:48;98964.50;;;14.13;57.35
33286;BME280;19656;50.096;20.014;2023-03-20T18:35:53;98967.70;;;14.11;57.50
33286;BME280;19656;50.096;20.014;2023-03-20T18:40:56;98972.11;;;14.05;57.70
33286;BME280;19656;50.096;20.014;2023-03-20T18:46:01;98974.23;;;14.07;58.19
33286;BME280;19656;50.096;20.014;2023-03-20T18:51:04;98967.98;;;14.12;58.17
33286;BME280;19656;50.096;20.014;2023-03-20T18:56:19;98967.09;;;14.10;58.18
33286;BME280;19656;50.096;20.014;2023-03-20T19:01:23;98964.21;;;14.05;58.26
33286;BME280;19656;50.096;20.014;2023-03-20T19:06:37;98968.75;;;14.02;58.39
33286;BME280;19656;50.096;20.014;2023-03-20T19:11:40;98965.75;;;13.97;58.62
33286;BME280;19656;50.096;20.014;2023-03-20T19:16:44;98960.42;;;13.99;58.76
33286;BME280;19656;50.096;20.014;2023-03-20T19:21:48;98964.37;;;13.99;58.85
33286;BME280;19656;50.096;20.014;2023-03-20T19:26:51;98967.11;;;13.95;58.92
33286;BME280;19656;50.096;20.014;2023-03-20T19:31:59;98969.11;;;13.92;58.99
33286;BME280;19656;50.096;20.014;2023-03-20T19:37:05;98970.61;;;13.89;59.12
33286;BME280;19656;50.096;20.014;2023-03-20T19:42:09;98966.98;;;13.83;59.21
33286;BME280;19656;50.096;20.014;2023-03-20T19:47:38;98975.58;;;13.80;59.22
33286;BME280;19656;50.096;20.014;2023-03-20T19:52:49;98976.85;;;13.75;59.29
33286;BME280;19656;50.096;20.014;2023-03-20T19:57:53;98977.61;;;13.70;59.34
33286;BME280;19656;50.096;20.014;2023-03-20T20:03:05;98977.77;;;13.66;59.46
33286;BME280;19656;50.096;20.014;2023-03-20T20:08:19;98975.32;;;13.60;59.61
33286;BME280;19656;50.096;20.014;2023-03-20T20:13:38;98971.61;;;13.58;59.72
33286;BME280;19656;50.096;20.014;2023-03-20T20:19:03;98967.65;;;13.51;59.83
33286;BME280;19656;50.096;20.014;2023-03-20T20:24:07;98965.86;;;13.41;60.00
33286;BME280;19656;50.096;20.014;2023-03-20T20:29:12;98966.80;;;13.38;60.21
33286;BME280;19656;50.096;20.014;2023-03-20T20:34:21;98957.24;;;13.35;60.31
33286;BME280;19656;50.096;20.014;2023-03-20T20:42:49;98960.41;;;13.31;60.66
33286;BME280;19656;50.096;20.014;2023-03-20T20:48:03;98957.55;;;13.24;60.88
33286;BME280;19656;50.096;20.014;2023-03-20T20:53:12;98958.36;;;13.22;60.99
33286;BME280;19656;50.096;20.014;2023-03-20T20:58:17;98957.81;;;13.25;61.07
33286;BME280;19656;50.096;20.014;2023-03-20T21:03:27;98958.99;;;13.26;61.11
33286;BME280;19656;50.096;20.014;2023-03-20T21:08:34;98963.64;;;13.26;61.13
33286;BME280;19656;50.096;20.014;2023-03-20T21:13:57;98961.05;;;13.30;61.13
33286;BME280;19656;50.096;20.014;2023-03-20T21:19:01;98960.98;;;13.28;61.11
33286;BME280;19656;50.096;20.014;2023-03-20T21:24:32;98959.20;;;13.26;61.18
33286;BME280;19656;50.096;20.014;2023-03-20T21:29:49;98961.14;;;13.21;61.24
33286;BME280;19656;50.096;20.014;2023-03-20T21:34:56;98958.62;;;13.18;61.37
33286;BME280;19656;50.096;20.014;2023-03-20T21:40:04;98959.81;;;13.17;61.44
33286;BME280;19656;50.096;20.014;2023-03-20T21:45:09;98958.05;;;13.15;61.51
33286;BME280;19656;50.096;20.014;2023-03-20T21:51:44;98965.64;;;13.10;61.66
33286;BME280;19656;50.096;20.014;2023-03-20T21:57:43;98963.05;;;13.04;61.79
33286;BME280;19656;50.096;20.014;2023-03-20T22:03:38;98967.70;;;12.99;61.88
33286;BME280;19656;50.096;20.014;2023-03-20T22:08:59;98971.88;;;12.91;62.17
33286;BME280;19656;50.096;20.014;2023-03-20T23:25:29;98988.35;;;12.40;63.57
33286;BME280;19656;50.096;20.014;2023-03-20T23:30:43;98984.42;;;12.37;63.65
33286;BME280;19656;50.096;20.014;2023-03-20T23:36:02;98976.30;;;12.44;63.62
33286;BME280;19656;50.096;20.014;2023-03-20T23:41:26;98976.75;;;12.50;63.33
33286;BME280;19656;50.096;20.014;2023-03-20T23:46:51;98970.28;;;12.49;63.37
33286;BME280;19656;50.096;20.014;2023-03-20T23:51:55;98965.41;;;12.42;63.56
33286;BME280;19656;50.096;20.014;2023-03-20T23:56:58;98961.13;;;12.35;63.86
